Time;durP1;ratioP1;P1;durP2;ratioP2;P2;SDS_P1;SDS_P2;PMS_P1;PMS_P2;Temp;Humidity;BMP_temperature;BMP_pressure;BME280_temperature;BME280_humidity;BME280_pressure;Samples;Min_cycle;Max_cycle;Signal;HPM_P1;HPM_P2
2022/05/07 00:00:16;;;;;;;39.53;25.85;;;12.80;99.90;;;;;;5038805;28;20076;-70
2022/05/07 00:02:41;;;;;;;36.13;24.55;;;12.80;99.90;;;;;;5038297;28;20045;-71
2022/05/07 00:05:07;;;;;;;37.20;25.30;;;12.80;99.90;;;;;;5020977;28;20045;-70
2022/05/07 00:07:33;;;;;;;38.80;26.08;;;12.90;99.90;;;;;;5021302;28;20050;-71
2022/05/07 00:09:58;;;;;;;39.00;26.60;;;12.80;99.90;;;;;;5038327;28;20367;-71
2022/05/07 00:12:24;;;;;;;39.75;26.58;;;12.80;99.90;;;;;;5021142;28;20477;-71
2022/05/07 00:14:49;;;;;;;39.72;26.38;;;12.80;99.90;;;;;;5038083;28;20052;-71
2022/05/07 00:19:59;;;;;;;42.13;26.65;;;12.80;99.90;;;;;;5037878;28;20053;-70
2022/05/07 00:22:25;;;;;;;40.92;27.05;;;12.90;99.90;;;;;;5037989;28;20465;-71
2022/05/07 00:24:50;;;;;;;39.78;26.63;;;12.90;99.90;;;;;;5037913;28;20038;-72
2022/05/07 00:27:16;;;;;;;36.80;24.20;;;12.90;99.90;;;;;;5020628;28;20049;-71
2022/05/07 00:29:42;;;;;;;35.85;25.42;;;12.90;99.90;;;;;;5037839;28;20397;-72
2022/05/07 00:32:08;;;;;;;33.92;23.25;;;12.90;99.90;;;;;;5037794;28;20451;-71
2022/05/07 00:34:34;;;;;;;37.35;25.65;;;12.90;99.90;;;;;;5037978;28;20049;-71
2022/05/07 00:37:00;;;;;;;37.90;25.95;;;13.00;99.90;;;;;;5038331;28;20060;-71
2022/05/07 00:39:25;;;;;;;36.90;25.80;;;12.90;99.90;;;;;;5020364;28;20045;-71
2022/05/07 00:41:52;;;;;;;41.33;27.08;;;13.00;99.90;;;;;;5020343;28;20041;-71
2022/05/07 00:44:20;;;;;;;43.58;26.88;;;13.00;99.90;;;;;;5037723;28;20042;-70
2022/05/07 00:46:47;;;;;;;44.38;27.20;;;13.00;99.90;;;;;;5037544;28;20055;-71
2022/05/07 00:49:13;;;;;;;35.95;27.23;;;13.00;99.90;;;;;;5037514;28;20045;-71
2022/05/07 00:51:39;;;;;;;38.20;27.30;;;13.00;99.90;;;;;;5037393;28;20049;-71
2022/05/07 00:54:09;;;;;;;38.22;26.17;;;13.00;99.90;;;;;;5039201;28;20060;-71
2022/05/07 00:56:36;;;;;;;39.20;25.70;;;13.00;99.90;;;;;;5037097;28;20187;-72
2022/05/07 00:59:03;;;;;;;35.97;26.13;;;13.00;99.90;;;;;;5035826;28;20045;-71
2022/05/07 01:01:29;;;;;;;31.58;24.38;;;13.00;99.90;;;;;;5020352;28;20136;-71
2022/05/07 01:03:55;;;;;;;41.55;25.45;;;13.00;99.90;;;;;;5037198;28;20491;-71
2022/05/07 01:06:21;;;;;;;41.10;28.65;;;13.00;99.90;;;;;;5019762;28;20187;-72
2022/05/07 01:08:48;;;;;;;37.92;26.75;;;12.90;99.90;;;;;;5019677;28;20120;-71
2022/05/07 01:11:19;;;;;;;35.88;26.70;;;13.00;99.90;;;;;;5019783;28;20056;-71
2022/05/07 01:13:46;;;;;;;44.78;28.25;;;12.90;99.90;;;;;;5037601;28;20053;-71
2022/05/07 01:16:12;;;;;;;47.05;28.33;;;13.00;99.90;;;;;;5037561;28;20042;-72
2022/05/07 01:18:39;;;;;;;42.40;29.20;;;12.90;99.90;;;;;;5019546;28;20470;-71
2022/05/07 01:21:16;;;;;;;45.05;29.88;;;12.90;99.90;;;;;;5036908;28;20060;-71
2022/05/07 01:23:44;;;;;;;47.33;30.30;;;12.90;99.90;;;;;;5036686;28;20458;-71
2022/05/07 01:26:11;;;;;;;46.15;30.42;;;12.90;99.90;;;;;;5037392;28;20045;-71
2022/05/07 01:28:37;;;;;;;43.47;29.35;;;12.90;99.90;;;;;;5002979;28;20103;-71
2022/05/07 01:31:04;;;;;;;46.53;31.73;;;12.90;99.90;;;;;;5036670;28;20029;-72
2022/05/07 01:33:33;;;;;;;45.15;31.27;;;12.80;99.90;;;;;;5019284;28;20045;-71
2022/05/07 01:36:02;;;;;;;47.70;30.85;;;12.80;99.90;;;;;;5036625;28;20041;-71
2022/05/07 01:38:29;;;;;;;48.03;31.63;;;12.80;99.90;;;;;;5019595;28;20059;-71
2022/05/07 01:40:55;;;;;;;45.13;30.40;;;12.80;99.90;;;;;;5036480;28;20049;-72
2022/05/07 01:43:20;;;;;;;43.13;29.88;;;12.80;99.90;;;;;;5036898;28;20038;-71
2022/05/07 01:45:46;;;;;;;45.83;31.85;;;12.80;99.90;;;;;;5037052;28;20468;-70
2022/05/07 01:48:12;;;;;;;45.58;30.98;;;12.80;99.90;;;;;;5036935;28;20198;-71
2022/05/07 01:50:42;;;;;;;46.13;31.05;;;12.80;99.90;;;;;;5036822;28;20077;-72
2022/05/07 01:53:09;;;;;;;41.88;30.08;;;12.80;99.90;;;;;;5018985;28;20535;-71
2022/05/07 01:55:35;;;;;;;46.63;30.98;;;12.80;99.90;;;;;;5052322;28;20461;-71
2022/05/07 01:58:01;;;;;;;43.10;30.58;;;12.80;99.90;;;;;;5038762;28;20048;-71
2022/05/07 02:00:27;;;;;;;49.03;31.45;;;12.80;99.90;;;;;;5056099;28;20045;-72
2022/05/07 02:02:52;;;;;;;45.85;30.65;;;12.80;99.90;;;;;;5052650;28;20049;-71
2022/05/07 02:05:18;;;;;;;43.25;31.75;;;12.80;99.90;;;;;;5055934;28;20364;-71
2022/05/07 02:07:44;;;;;;;44.85;30.38;;;12.80;99.90;;;;;;5056264;28;20037;-72
2022/05/07 02:10:13;;;;;;;41.35;30.08;;;12.80;99.90;;;;;;5055590;28;20044;-71
2022/05/07 02:12:38;;;;;;;41.35;31.80;;;12.80;99.90;;;;;;5056154;28;20354;-72
2022/05/07 02:15:04;;;;;;;42.42;30.52;;;12.80;99.90;;;;;;5056043;28;20041;-72
2022/05/07 02:17:30;;;;;;;42.03;29.95;;;12.80;99.90;;;;;;5052824;28;20057;-71
2022/05/07 02:19:55;;;;;;;42.92;30.55;;;12.80;99.90;;;;;;5055485;28;20055;-71
2022/05/07 02:22:21;;;;;;;41.90;29.15;;;12.80;99.90;;;;;;5056059;28;20099;-72
2022/05/07 02:24:46;;;;;;;41.67;29.02;;;12.80;99.90;;;;;;5055838;28;20069;-71
2022/05/07 02:27:12;;;;;;;40.75;28.42;;;12.80;99.90;;;;;;5055855;28;20048;-71
2022/05/07 02:29:38;;;;;;;38.28;29.48;;;12.90;99.90;;;;;;5055518;28;20076;-72
2022/05/07 02:32:05;;;;;;;40.47;28.13;;;12.80;99.90;;;;;;5055301;28;20053;-71
2022/05/07 02:34:31;;;;;;;42.03;30.00;;;12.80;99.90;;;;;;5037825;28;20129;-72
2022/05/07 02:36:58;;;;;;;38.80;28.92;;;12.80;99.90;;;;;;5055940;28;20049;-72
2022/05/07 02:39:23;;;;;;;40.28;27.52;;;12.80;99.90;;;;;;5055631;28;20083;-71
2022/05/07 02:44:33;;;;;;;35.95;26.08;;;12.70;99.90;;;;;;5054996;28;20383;-71
2022/05/07 02:46:58;;;;;;;32.55;26.05;;;12.70;99.90;;;;;;5037337;28;20055;-71
2022/05/07 02:49:25;;;;;;;37.97;27.60;;;12.70;99.90;;;;;;5055230;28;20128;-71
2022/05/07 02:51:51;;;;;;;32.53;26.75;;;12.80;99.90;;;;;;5054959;28;20133;-71
2022/05/07 02:54:17;;;;;;;38.40;26.75;;;12.80;99.90;;;;;;5037285;28;20060;-72
2022/05/07 02:56:42;;;;;;;34.72;26.67;;;12.70;99.90;;;;;;5037434;28;20373;-71
2022/05/07 02:59:08;;;;;;;32.45;24.88;;;12.70;99.90;;;;;;5037217;28;20126;-72
2022/05/07 03:01:33;;;;;;;36.92;26.95;;;12.70;99.90;;;;;;5054900;28;20485;-71
2022/05/07 03:03:59;;;;;;;35.72;26.00;;;12.70;99.90;;;;;;5055280;28;20048;-71
2022/05/07 03:06:25;;;;;;;33.15;25.70;;;12.70;99.90;;;;;;5055324;28;20041;-72
2022/05/07 03:08:50;;;;;;;35.47;26.55;;;12.70;99.90;;;;;;5054870;28;20142;-71
2022/05/07 03:11:16;;;;;;;35.45;26.40;;;12.70;99.90;;;;;;5037545;28;20361;-72
2022/05/07 03:13:41;;;;;;;34.88;26.92;;;12.60;99.90;;;;;;5037513;28;20055;-71
2022/05/07 03:16:07;;;;;;;37.17;27.65;;;12.60;99.90;;;;;;5054767;28;20053;-72
2022/05/07 03:18:32;;;;;;;32.83;25.52;;;12.60;99.90;;;;;;5037799;28;20060;-72
2022/05/07 03:21:01;;;;;;;35.42;26.08;;;12.60;99.90;;;;;;5054707;28;20119;-71
2022/05/07 03:23:27;;;;;;;37.55;26.75;;;12.60;99.90;;;;;;5036321;28;20083;-71
2022/05/07 03:25:53;;;;;;;34.00;26.45;;;12.50;99.90;;;;;;5054550;28;20068;-72
2022/05/07 03:28:18;;;;;;;36.22;25.27;;;12.50;99.90;;;;;;5055308;28;20037;-71
2022/05/07 03:30:44;;;;;;;32.20;24.65;;;12.50;99.90;;;;;;5054601;28;20114;-72
2022/05/07 03:33:10;;;;;;;34.40;26.67;;;12.50;99.90;;;;;;5054733;28;20124;-71
2022/05/07 03:35:35;;;;;;;34.45;26.55;;;12.60;99.90;;;;;;5054451;28;20392;-71
2022/05/07 03:38:01;;;;;;;37.72;26.45;;;12.40;99.90;;;;;;5036779;28;20127;-71
2022/05/07 03:40:27;;;;;;;32.45;25.88;;;12.40;99.90;;;;;;5055005;28;20112;-72
2022/05/07 03:42:53;;;;;;;36.42;26.40;;;12.30;99.90;;;;;;5054587;28;20480;-72
2022/05/07 03:45:20;;;;;;;37.83;26.02;;;12.30;99.90;;;;;;5036866;28;20068;-72
2022/05/07 03:47:45;;;;;;;36.10;26.92;;;12.30;99.90;;;;;;5038119;28;20037;-71
2022/05/07 03:50:12;;;;;;;35.75;27.05;;;12.20;99.90;;;;;;5037463;28;20045;-72
2022/05/07 03:55:22;;;;;;;34.15;26.23;;;12.20;99.90;;;;;;5036481;28;20079;-72
2022/05/07 03:57:47;;;;;;;34.83;28.05;;;12.20;99.90;;;;;;5037022;28;20449;-72
2022/05/07 04:00:13;;;;;;;33.00;25.70;;;12.20;99.90;;;;;;5021362;28;20045;-72
2022/05/07 04:02:39;;;;;;;35.08;28.23;;;12.20;99.90;;;;;;5054766;28;20475;-72
2022/05/07 04:05:04;;;;;;;32.10;26.60;;;12.30;99.90;;;;;;5054172;28;20464;-71
2022/05/07 04:07:30;;;;;;;34.35;26.50;;;12.20;99.90;;;;;;5054376;28;20044;-71
2022/05/07 04:09:56;;;;;;;34.50;27.08;;;12.20;99.90;;;;;;5054363;28;20041;-71
2022/05/07 04:12:22;;;;;;;34.00;26.92;;;12.20;99.90;;;;;;5037101;28;20056;-71
2022/05/07 04:14:48;;;;;;;33.88;27.40;;;12.20;99.90;;;;;;5036924;28;20045;-72
2022/05/07 04:17:13;;;;;;;36.58;28.25;;;12.20;99.90;;;;;;5037126;28;20124;-71
2022/05/07 04:19:40;;;;;;;37.15;28.85;;;12.20;99.90;;;;;;5036781;28;20056;-71
2022/05/07 04:22:05;;;;;;;34.70;27.85;;;12.20;99.90;;;;;;5037397;28;20053;-72
2022/05/07 04:24:33;;;;;;;38.60;27.75;;;12.30;99.90;;;;;;5054179;28;20377;-71
2022/05/07 04:26:59;;;;;;;37.05;29.23;;;12.40;99.90;;;;;;5054245;28;20041;-71
2022/05/07 04:29:25;;;;;;;38.53;29.35;;;12.30;99.90;;;;;;5037431;28;20041;-72
2022/05/07 04:31:51;;;;;;;39.55;28.67;;;12.30;99.90;;;;;;5054033;28;20037;-71
2022/05/07 04:34:16;;;;;;;35.60;29.02;;;12.40;99.90;;;;;;5039011;28;20059;-72
2022/05/07 04:36:42;;;;;;;40.63;28.80;;;12.40;99.90;;;;;;5057737;28;20049;-71
2022/05/07 04:39:08;;;;;;;35.95;27.75;;;12.40;99.90;;;;;;5057727;28;20049;-71
2022/05/07 04:41:33;;;;;;;34.50;28.40;;;12.40;99.90;;;;;;5040133;28;20150;-71
2022/05/07 04:44:01;;;;;;;34.92;27.40;;;12.50;99.90;;;;;;5057941;28;20063;-71
2022/05/07 04:46:27;;;;;;;37.20;28.05;;;12.50;99.90;;;;;;5058074;28;20064;-71
2022/05/07 04:48:52;;;;;;;35.08;27.08;;;12.50;99.90;;;;;;5040674;28;20080;-72
2022/05/07 04:51:18;;;;;;;36.38;26.92;;;12.60;99.90;;;;;;5057801;28;20041;-72
2022/05/07 04:53:44;;;;;;;34.40;27.20;;;12.60;99.90;;;;;;5057165;28;20433;-71
2022/05/07 04:56:10;;;;;;;33.00;27.17;;;12.70;99.90;;;;;;5057181;28;20099;-72
2022/05/07 04:58:36;;;;;;;37.05;28.63;;;12.70;99.90;;;;;;5057811;28;20088;-71
2022/05/07 05:01:01;;;;;;;31.27;25.55;;;12.70;99.90;;;;;;5057636;28;20069;-71
2022/05/07 05:03:27;;;;;;;37.78;26.52;;;12.80;99.90;;;;;;5057414;28;20507;-72
2022/05/07 05:05:53;;;;;;;32.30;26.40;;;12.80;99.90;;;;;;5057085;28;20059;-72
2022/05/07 05:08:18;;;;;;;33.55;26.83;;;12.80;99.90;;;;;;5023410;28;20083;-72
2022/05/07 05:10:45;;;;;;;36.95;27.23;;;12.80;99.90;;;;;;5057037;28;20036;-72
2022/05/07 05:13:11;;;;;;;30.10;24.70;;;12.80;99.90;;;;;;5057030;28;20060;-72
2022/05/07 05:15:37;;;;;;;34.22;26.33;;;12.80;99.90;;;;;;5039441;28;20060;-71
2022/05/07 05:18:03;;;;;;;33.65;27.35;;;12.90;99.90;;;;;;5057016;28;20029;-70
2022/05/07 05:20:28;;;;;;;34.88;26.55;;;12.90;99.90;;;;;;5056803;28;20037;-72
2022/05/07 05:22:54;;;;;;;33.58;28.20;;;12.90;99.90;;;;;;5056740;28;20083;-72
2022/05/07 05:25:22;;;;;;;37.50;27.42;;;12.90;99.90;;;;;;5056755;28;20041;-73
2022/05/07 05:27:48;;;;;;;34.95;27.45;;;12.90;99.90;;;;;;5056594;28;20102;-71
2022/05/07 05:30:14;;;;;;;36.72;27.75;;;13.00;99.90;;;;;;5056744;28;20041;-71
2022/05/07 05:32:39;;;;;;;36.72;28.02;;;13.10;99.90;;;;;;5036589;28;20430;-72
2022/05/07 05:35:05;;;;;;;34.67;27.67;;;13.10;99.90;;;;;;5056681;28;20461;-72
2022/05/07 05:37:31;;;;;;;33.38;28.05;;;13.20;99.90;;;;;;5039269;28;20033;-72
2022/05/07 05:39:56;;;;;;;37.35;27.98;;;13.30;99.90;;;;;;5039021;28;20048;-71
2022/05/07 05:42:22;;;;;;;42.35;27.08;;;13.30;99.90;;;;;;5056442;28;20487;-72
2022/05/07 05:44:48;;;;;;;35.33;29.05;;;13.40;99.90;;;;;;5055567;28;20048;-71
2022/05/07 05:47:14;;;;;;;31.52;25.75;;;13.40;99.90;;;;;;5038756;28;20433;-72
2022/05/07 05:49:39;;;;;;;31.85;25.50;;;13.60;99.90;;;;;;5039198;28;20128;-71
2022/05/07 05:52:06;;;;;;;31.65;25.83;;;13.60;99.90;;;;;;5056333;28;20076;-72
2022/05/07 05:54:33;;;;;;;30.92;24.00;;;13.70;99.90;;;;;;5056292;28;20123;-72
2022/05/07 05:56:59;;;;;;;33.00;25.30;;;13.80;99.90;;;;;;5055887;28;20049;-72
2022/05/07 05:59:25;;;;;;;31.70;23.73;;;13.90;99.90;;;;;;5056056;28;20421;-71
2022/05/07 06:01:51;;;;;;;37.55;25.98;;;14.00;99.90;;;;;;5039059;28;20369;-72
2022/05/07 06:04:17;;;;;;;32.85;25.42;;;14.10;99.90;;;;;;5038819;28;20075;-73
2022/05/07 06:06:43;;;;;;;28.55;23.25;;;14.20;99.90;;;;;;5038540;28;20090;-71
2022/05/07 06:09:08;;;;;;;27.90;21.55;;;14.30;99.90;;;;;;5055758;28;20037;-72
2022/05/07 06:11:34;;;;;;;29.63;23.30;;;14.40;99.90;;;;;;5021802;28;20140;-70
2022/05/07 06:14:00;;;;;;;31.02;21.38;;;14.50;99.90;;;;;;5038630;28;20084;-73
2022/05/07 06:16:25;;;;;;;31.02;21.85;;;14.50;99.90;;;;;;5055776;28;20365;-72
2022/05/07 06:18:51;;;;;;;23.88;19.90;;;14.60;99.90;;;;;;5056242;28;20045;-72
2022/05/07 06:21:17;;;;;;;29.90;23.75;;;14.60;99.90;;;;;;5020926;28;20060;-72
2022/05/07 06:23:43;;;;;;;32.05;23.20;;;14.70;99.90;;;;;;5038475;28;20052;-72
2022/05/07 06:28:53;;;;;;;24.42;21.10;;;14.80;99.90;;;;;;5055710;28;20045;-71
2022/05/07 06:31:18;;;;;;;25.15;21.20;;;15.00;99.90;;;;;;5020676;28;20068;-72
2022/05/07 06:33:45;;;;;;;27.27;22.30;;;15.10;99.90;;;;;;5055623;28;20049;-72
2022/05/07 06:36:12;;;;;;;25.08;21.38;;;15.30;99.90;;;;;;5055442;28;20040;-71
2022/05/07 06:38:41;;;;;;;26.60;21.48;;;15.50;99.90;;;;;;5055356;28;20033;-72
2022/05/07 06:41:07;;;;;;;26.85;22.50;;;15.70;99.90;;;;;;5055062;28;20496;-72
2022/05/07 06:43:33;;;;;;;24.75;20.38;;;15.60;99.90;;;;;;5055332;28;20128;-72
2022/05/07 06:46:00;;;;;;;25.95;20.00;;;15.60;99.90;;;;;;5037758;28;20094;-72
2022/05/07 06:48:26;;;;;;;23.17;20.15;;;15.70;99.90;;;;;;5037884;28;20056;-71
2022/05/07 06:50:53;;;;;;;24.95;20.58;;;15.70;99.90;;;;;;5037940;28;20073;-72
2022/05/07 06:53:18;;;;;;;29.20;22.27;;;15.80;99.90;;;;;;5037762;28;20056;-71
2022/05/07 06:55:58;;;;;;;26.27;20.23;;;15.90;99.90;;;;;;5054863;28;20063;-73
2022/05/07 06:58:30;;;;;;;22.45;19.90;;;16.00;99.90;;;;;;5055043;28;20081;-72
2022/05/07 07:00:57;;;;;;;23.63;19.67;;;16.40;99.90;;;;;;5055121;28;20056;-73
2022/05/07 07:03:23;;;;;;;22.50;18.55;;;16.80;99.90;;;;;;5055053;28;20112;-72
2022/05/07 07:05:50;;;;;;;21.77;19.27;;;17.30;99.90;;;;;;5054956;28;20110;-72
2022/05/07 07:08:16;;;;;;;24.98;19.05;;;17.80;99.90;;;;;;5054958;28;20369;-72
2022/05/07 07:10:42;;;;;;;23.52;18.73;;;18.20;99.90;;;;;;5054942;28;20049;-72
2022/05/07 07:13:08;;;;;;;20.27;17.58;;;18.30;99.90;;;;;;5054939;28;20041;-73
2022/05/07 07:15:33;;;;;;;23.38;18.73;;;18.60;99.90;;;;;;5054865;28;20037;-72
2022/05/07 07:18:00;;;;;;;22.77;17.95;;;18.90;99.90;;;;;;5054759;28;20109;-71
2022/05/07 07:20:25;;;;;;;19.85;17.42;;;18.90;99.90;;;;;;5054872;28;20053;-72
2022/05/07 07:22:51;;;;;;;20.83;18.45;;;18.80;99.90;;;;;;5054754;28;20476;-72
2022/05/07 07:25:16;;;;;;;19.92;16.52;;;19.10;99.90;;;;;;5054806;28;20526;-73
2022/05/07 07:27:42;;;;;;;23.77;18.38;;;19.40;99.90;;;;;;5054722;28;20049;-72
2022/05/07 07:30:08;;;;;;;22.00;18.08;;;19.80;99.90;;;;;;5054891;28;20053;-72
2022/05/07 07:32:34;;;;;;;17.35;15.52;;;19.90;99.90;;;;;;5054547;28;20037;-72
2022/05/07 07:34:59;;;;;;;22.73;17.30;;;20.10;99.90;;;;;;5054588;28;20063;-72
2022/05/07 07:37:25;;;;;;;20.73;16.30;;;20.20;99.90;;;;;;5054313;28;20056;-72
2022/05/07 07:39:50;;;;;;;21.58;16.75;;;20.10;99.90;;;;;;5054486;28;20049;-72
2022/05/07 07:42:20;;;;;;;18.63;16.60;;;19.90;99.90;;;;;;5019972;28;20057;-71
2022/05/07 07:47:56;;;;;;;17.05;14.90;;;19.60;99.90;;;;;;5054404;28;20090;-73
2022/05/07 07:50:15;;;;;;;20.10;15.38;;;19.40;99.90;;;;;;5053956;28;20057;-71
2022/05/07 07:52:41;;;;;;;20.67;16.10;;;19.40;99.90;;;;;;5054372;28;20126;-72
2022/05/07 07:55:07;;;;;;;19.33;15.88;;;19.20;99.90;;;;;;5055360;28;20377;-72
2022/05/07 07:57:32;;;;;;;20.00;17.20;;;18.90;99.90;;;;;;5054152;28;20511;-71
2022/05/07 07:59:58;;;;;;;23.48;17.15;;;18.80;99.90;;;;;;5054237;28;20052;-72
2022/05/07 08:02:24;;;;;;;23.00;17.42;;;18.60;99.90;;;;;;5054410;28;20047;-72
2022/05/07 08:04:54;;;;;;;19.90;16.85;;;18.60;99.90;;;;;;5054218;28;20053;-71
2022/05/07 08:12:48;;;;;;;22.33;17.83;;;18.40;99.90;;;;;;5058208;28;20045;-71
2022/05/07 08:15:13;;;;;;;20.10;17.92;;;18.40;99.90;;;;;;5058448;28;20040;-71
2022/05/07 08:17:39;;;;;;;21.80;18.77;;;18.50;99.90;;;;;;5058018;28;20095;-72
2022/05/07 08:20:09;;;;;;;27.00;18.42;;;18.30;99.90;;;;;;5054833;28;20064;-71
2022/05/07 08:22:34;;;;;;;22.45;17.92;;;18.40;99.90;;;;;;5040672;28;20114;-72
2022/05/07 08:25:01;;;;;;;21.77;18.65;;;18.70;99.90;;;;;;5057809;28;20033;-72
2022/05/07 08:27:27;;;;;;;24.33;19.25;;;18.90;99.90;;;;;;5057784;28;20049;-72
2022/05/07 08:29:56;;;;;;;24.55;19.35;;;19.10;99.90;;;;;;5041325;28;20087;-71
2022/05/07 08:32:21;;;;;;;23.92;19.27;;;19.00;99.90;;;;;;5057646;28;20051;-71
2022/05/07 08:34:48;;;;;;;19.83;16.95;;;18.90;99.90;;;;;;5057811;28;20128;-71
2022/05/07 08:37:14;;;;;;;26.70;21.35;;;18.90;99.90;;;;;;5040184;28;20057;-71
2022/05/07 08:39:40;;;;;;;22.02;19.00;;;18.70;99.90;;;;;;5057488;28;20056;-71
2022/05/07 08:42:06;;;;;;;24.95;19.67;;;18.60;99.90;;;;;;5040722;28;20049;-71
2022/05/07 08:44:32;;;;;;;24.85;19.58;;;18.50;99.90;;;;;;5057542;28;20113;-71
2022/05/07 08:46:59;;;;;;;26.98;19.60;;;18.40;99.90;;;;;;5057597;28;20036;-72
2022/05/07 08:49:25;;;;;;;27.27;20.40;;;18.50;99.90;;;;;;5057577;28;20118;-71
2022/05/07 08:51:53;;;;;;;25.08;18.77;;;18.50;99.90;;;;;;5057822;28;20510;-71
2022/05/07 08:54:19;;;;;;;23.30;18.90;;;18.60;99.90;;;;;;5057728;28;20063;-72
2022/05/07 08:56:44;;;;;;;24.02;18.17;;;18.70;99.90;;;;;;5039773;28;20053;-71
2022/05/07 08:59:10;;;;;;;22.05;17.23;;;18.70;99.90;;;;;;5057220;28;20067;-73
2022/05/07 09:01:36;;;;;;;21.92;16.23;;;18.50;99.90;;;;;;5057328;28;20076;-71
2022/05/07 09:04:11;;;;;;;19.80;16.70;;;18.50;99.90;;;;;;5039670;28;20450;-72
2022/05/07 09:06:38;;;;;;;27.73;17.75;;;18.60;99.90;;;;;;5040108;28;20051;-72
2022/05/07 09:09:07;;;;;;;22.90;17.75;;;18.80;99.90;;;;;;5039637;28;20045;-71
2022/05/07 09:11:42;;;;;;;21.25;18.35;;;18.90;99.90;;;;;;5057349;28;20045;-71
2022/05/07 09:14:08;;;;;;;26.33;20.30;;;18.80;99.90;;;;;;5039890;28;20045;-71
2022/05/07 09:16:46;;;;;;;24.02;18.73;;;18.70;99.90;;;;;;5057019;28;20334;-72
2022/05/07 09:19:38;;;;;;;25.33;19.23;;;18.70;99.90;;;;;;5056400;28;20095;-71
2022/05/07 09:22:07;;;;;;;23.58;19.42;;;18.80;99.90;;;;;;5052006;28;20049;-72
2022/05/07 09:24:33;;;;;;;25.20;19.77;;;18.80;99.90;;;;;;5053731;28;20106;-72
2022/05/07 09:27:00;;;;;;;21.67;18.30;;;18.70;99.90;;;;;;5056825;28;20045;-71
2022/05/07 09:29:29;;;;;;;25.65;19.40;;;18.60;99.90;;;;;;5056757;28;20045;-71
2022/05/07 09:31:54;;;;;;;22.63;19.42;;;18.50;99.90;;;;;;5057285;28;20033;-71
2022/05/07 09:37:16;;;;;;;23.13;17.38;;;18.40;99.90;;;;;;5057050;28;20401;-72
2022/05/07 09:39:50;;;;;;;23.30;17.13;;;18.30;99.90;;;;;;5022785;28;20040;-71
2022/05/07 09:42:22;;;;;;;27.65;17.20;;;18.30;99.90;;;;;;5056923;28;20037;-70
2022/05/07 09:44:49;;;;;;;19.52;15.65;;;18.30;99.90;;;;;;5053597;28;20049;-71
2022/05/07 09:47:15;;;;;;;22.85;14.77;;;18.40;99.90;;;;;;5056494;28;20041;-71
2022/05/07 09:52:30;;;;;;;21.92;17.05;;;18.60;99.90;;;;;;5056222;28;20057;-71
2022/05/07 09:57:41;;;;;;;17.08;14.77;;;19.10;99.90;;;;;;5056045;28;20465;-71
2022/05/07 10:00:10;;;;;;;19.10;12.80;;;19.10;99.90;;;;;;5056092;28;20041;-70
2022/05/07 10:03:04;;;;;;;20.77;11.77;;;19.10;99.90;;;;;;5039109;28;20091;-71
2022/05/07 10:05:43;;;;;;;;;;;19.10;99.90;;;;;;5056502;28;20079;-71
2022/05/07 10:08:46;;;;;;;23.40;15.25;;;19.30;99.90;;;;;;5039324;28;19931;-71
2022/05/07 10:11:13;;;;;;;18.80;15.23;;;19.40;99.90;;;;;;5055976;28;20051;-71
2022/05/07 10:13:39;;;;;;;20.08;13.32;;;19.60;99.90;;;;;;5055945;28;20041;-71
2022/05/07 10:16:05;;;;;;;15.80;12.32;;;19.60;99.90;;;;;;5055924;28;20041;-71
2022/05/07 10:18:36;;;;;;;24.35;15.60;;;19.80;99.90;;;;;;5055741;28;20076;-71
2022/05/07 10:21:11;;;;;;;23.15;18.20;;;19.90;99.90;;;;;;5055731;28;20134;-71
2022/05/07 10:23:52;;;;;;;26.05;20.52;;;19.80;99.90;;;;;;5055643;28;20033;-72
2022/05/07 10:26:18;;;;;;;22.50;18.70;;;19.70;99.90;;;;;;5055613;28;20044;-72
2022/05/07 10:28:44;;;;;;;32.22;23.98;;;19.60;99.90;;;;;;5055498;28;20064;-71
2022/05/07 10:31:23;;;;;;;35.45;26.60;;;19.40;99.90;;;;;;5055889;28;20053;-71
2022/05/07 10:33:50;;;;;;;38.33;26.35;;;19.30;99.90;;;;;;5055530;28;20037;-72
2022/05/07 10:36:16;;;;;;;35.95;27.30;;;19.20;99.90;;;;;;5037593;28;20067;-71
2022/05/07 10:38:44;;;;;;;34.55;26.38;;;19.30;99.90;;;;;;5052762;28;20045;-72
2022/05/07 10:41:12;;;;;;;36.50;28.75;;;19.30;99.90;;;;;;5038358;28;20092;-72
2022/05/07 10:43:39;;;;;;;29.42;23.00;;;19.20;99.90;;;;;;5055390;28;20049;-71
2022/05/07 10:46:12;;;;;;;33.33;26.17;;;19.30;99.90;;;;;;5037321;28;20480;-71
2022/05/07 10:48:42;;;;;;;;;;;19.40;99.90;;;;;;5055681;28;20461;-71
2022/05/07 10:51:19;;;;;;;35.80;26.38;;;19.50;99.90;;;;;;5055178;28;19990;-72
2022/05/07 10:53:45;;;;;;;34.95;26.92;;;19.60;99.90;;;;;;5055046;28;20041;-72
2022/05/07 10:56:13;;;;;;;34.83;26.92;;;19.40;99.90;;;;;;5055287;28;20130;-72
2022/05/07 10:58:47;;;;;;;34.42;25.48;;;19.60;99.90;;;;;;5037418;28;20485;-72
2022/05/07 11:01:14;;;;;;;31.85;22.90;;;19.80;99.90;;;;;;5055086;28;20080;-71
2022/05/07 11:03:40;;;;;;;32.25;24.08;;;19.90;99.90;;;;;;5055025;28;20048;-72
2022/05/07 11:06:06;;;;;;;30.45;25.15;;;19.90;99.90;;;;;;5055002;28;20048;-71
2022/05/07 11:08:31;;;;;;;41.78;25.35;;;19.90;99.90;;;;;;5038481;28;20330;-72
2022/05/07 11:11:08;;;;;;;29.38;22.77;;;19.80;99.90;;;;;;5034519;28;20049;-72
2022/05/07 11:13:51;;;;;;;31.25;22.80;;;20.10;99.90;;;;;;5054757;28;20055;-71
2022/05/07 11:16:18;;;;;;;29.65;23.00;;;20.10;99.90;;;;;;5055288;28;20101;-71
2022/05/07 11:18:51;;;;;;;34.10;24.58;;;20.30;99.90;;;;;;5055324;28;20369;-72
2022/05/07 11:21:20;;;;;;;;;;;20.10;99.90;;;;;;5055631;28;20049;-72
2022/05/07 11:23:53;;;;;;;28.60;21.85;;;20.30;99.90;;;;;;5054788;28;19921;-72
2022/05/07 11:26:20;;;;;;;32.90;23.15;;;20.50;99.90;;;;;;5054765;28;20045;-73
2022/05/07 11:28:47;;;;;;;28.92;20.58;;;20.40;99.90;;;;;;5055249;28;20063;-71
2022/05/07 11:31:25;;;;;;;30.52;22.77;;;20.30;99.90;;;;;;5054720;28;20037;-72
2022/05/07 11:34:01;;;;;;;28.90;21.77;;;19.90;99.90;;;;;;5037217;28;20449;-73
2022/05/07 11:36:26;;;;;;;31.15;23.10;;;19.60;99.90;;;;;;5054678;28;20123;-72
2022/05/07 11:39:00;;;;;;;29.52;22.10;;;19.60;99.90;;;;;;5054518;28;20151;-72
2022/05/07 11:41:27;;;;;;;31.92;22.67;;;19.50;99.90;;;;;;5054550;28;20056;-72
2022/05/07 11:46:52;;;;;;;29.42;22.05;;;19.20;99.90;;;;;;5058653;28;20104;-71
2022/05/07 11:49:28;;;;;;;33.67;23.38;;;19.10;99.90;;;;;;5058627;28;20112;-71
2022/05/07 11:52:08;;;;;;;29.88;23.77;;;19.10;99.90;;;;;;5041648;28;20045;-71
2022/05/07 11:54:33;;;;;;;37.72;25.17;;;19.10;99.90;;;;;;5059101;28;20063;-72
2022/05/07 11:56:59;;;;;;;33.10;24.15;;;18.90;99.90;;;;;;5058371;28;20086;-72
2022/05/07 11:59:25;;;;;;;36.28;25.05;;;18.60;99.90;;;;;;5024756;28;20113;-72
2022/05/07 12:01:51;;;;;;;31.60;22.15;;;18.50;99.90;;;;;;5058411;28;20041;-72
2022/05/07 12:04:17;;;;;;;30.60;21.60;;;18.40;99.90;;;;;;5058382;28;20362;-71
2022/05/07 12:06:54;;;;;;;31.00;20.15;;;18.30;99.90;;;;;;5058706;28;20588;-72
2022/05/07 12:09:19;;;;;;;31.35;21.08;;;18.20;99.90;;;;;;5058739;28;20060;-72
2022/05/07 12:11:45;;;;;;;24.50;17.25;;;18.20;99.90;;;;;;5058258;28;20119;-71
2022/05/07 12:14:10;;;;;;;28.77;18.98;;;18.40;99.90;;;;;;5058311;28;20045;-71
2022/05/07 12:19:31;;;;;;;25.40;16.85;;;18.60;99.90;;;;;;5057997;28;20048;-72
2022/05/07 12:30:12;;;;;;;23.65;15.15;;;18.40;99.90;;;;;;5057695;28;20515;-71
2022/05/07 12:32:39;;;;;;;24.55;16.80;;;18.50;99.90;;;;;;5057851;28;20041;-72
2022/05/07 12:35:06;;;;;;;24.17;16.90;;;18.80;99.90;;;;;;5039961;28;20461;-72
2022/05/07 12:37:32;;;;;;;24.90;16.92;;;19.10;99.90;;;;;;5038129;28;20048;-71
2022/05/07 12:39:58;;;;;;;26.05;15.68;;;19.10;99.90;;;;;;5058084;28;20063;-72
2022/05/07 12:42:24;;;;;;;20.73;15.95;;;19.30;99.90;;;;;;5058291;28;20441;-71
2022/05/07 12:44:49;;;;;;;20.48;14.45;;;19.50;99.90;;;;;;5057701;28;20064;-71
2022/05/07 12:47:17;;;;;;;19.55;12.30;;;19.40;99.90;;;;;;5040292;28;20053;-71
2022/05/07 12:49:43;;;;;;;19.38;11.20;;;19.20;99.90;;;;;;5057463;28;20085;-72
2022/05/07 12:52:09;;;;;;;14.80;9.57;;;19.10;99.90;;;;;;5057752;28;20118;-72
2022/05/07 12:54:36;;;;;;;13.15;9.10;;;19.00;99.90;;;;;;5057088;28;20481;-71
2022/05/07 12:57:02;;;;;;;12.15;8.57;;;19.20;99.90;;;;;;5057753;28;20099;-72
2022/05/07 12:59:28;;;;;;;14.10;9.25;;;19.30;99.90;;;;;;5057322;28;20047;-72
2022/05/07 13:01:53;;;;;;;15.23;8.48;;;19.60;99.90;;;;;;5057305;28;20041;-72
2022/05/07 13:04:22;;;;;;;14.73;10.77;;;19.50;99.90;;;;;;5057863;28;20040;-72
2022/05/07 13:06:48;;;;;;;11.93;8.73;;;19.50;99.90;;;;;;5057257;28;20053;-72
2022/05/07 13:09:13;;;;;;;14.27;9.40;;;19.50;99.90;;;;;;5057169;28;20041;-71